Latest Weather Observations for Scherger

IDQ60801

Issued at 9:05 pm EST Friday 31 October 2014 (issued every 30 minutes, with the page automatically refreshed every 10 minutes)

About weather observations | Map of weather stations | Latest weather observations for QLD | Other Formats
Station Details ID: 027075 Name: SCHERGER RAAF Lat: -12.62 Lon: 142.09 Height: 39.34 m
Data from the previous 72 hours. | See also: Recent months at Scherger
Date/Time
EST
Temp
°C
App
Temp
°C
Dew
Point
Rel
Hum
%
Delta-T
°C
Wind Press
QNH
hPa
Press
MSL
hPa
Rain
since 9 am
mm
Dir
 
Spd
km/h
Gust
km/h
Spd
kts
Gust
kts
31/09:00pm 26.9 27.2 17.1 55 6.1 ESE 11 19 6 10 1011.8 1011.5 0.0
31/08:30pm 26.4 30.6 20.9 72 3.6 SSE 0 0 0 0 1011.3 1011.0 0.0
31/08:00pm 26.7 29.8 21.0 71 3.8 S 6 9 3 5 1010.7 1010.4 0.0
31/07:30pm 27.0 30.0 21.3 71 3.8 WSW 7 11 4 6 1010.1 1009.8 0.0
31/07:00pm 27.4 30.0 21.2 69 4.1 WSW 9 15 5 8 1009.5 1009.2 0.0
31/06:30pm 28.2 29.9 21.0 65 4.8 WSW 13 19 7 10 1009.0 1008.7 0.0
31/06:00pm 29.6 31.3 20.2 57 6.2 W 11 17 6 9 1008.2 1007.9 0.0
31/05:30pm 34.2 32.9 13.6 29 12.5 E 13 22 7 12 1007.3 1007.0 0.0
31/05:00pm 35.2 33.8 13.4 27 13.3 NE 13 20 7 11 1006.9 1006.6 0.0
31/04:30pm 35.3 33.4 12.9 26 13.6 E 15 26 8 14 1006.7 1006.4 0.0
31/04:00pm 36.4 34.3 11.3 22 14.9 E 13 22 7 12 1006.6 1006.3 0.0
31/03:30pm 36.0 34.0 11.6 23 14.5 SE 13 26 7 14 1006.7 1006.4 0.0
31/03:00pm 36.5 33.1 9.2 19 15.8 E 17 26 9 14 1006.9 1006.6 0.0
31/02:30pm 36.4 33.4 12.6 24 14.4 ENE 20 33 11 18 1007.0 1006.7 0.0
31/02:00pm 36.2 32.0 9.7 20 15.4 E 22 32 12 17 1007.5 1007.2 0.0
31/01:30pm 35.5 32.5 12.5 25 13.9 E 20 28 11 15 1008.1 1007.8 0.0
31/01:00pm 35.2 33.0 13.4 27 13.3 ENE 17 30 9 16 1008.6 1008.3 0.0
31/12:30pm 35.0 34.1 15.8 31 12.1 ENE 15 24 8 13 1009.3 1009.0 0.0
31/12:00pm 33.5 32.8 16.4 36 10.8 ENE 15 24 8 13 1010.0 1009.7 0.0
31/11:30am 32.5 33.2 17.9 41 9.4 E 11 22 6 12 1010.6 1010.3 0.0
31/11:00am 31.3 31.1 17.6 44 8.8 ESE 15 26 8 14 1011.3 1011.0 0.0
31/10:30am 30.7 30.3 18.1 47 8.1 E 17 30 9 16 1011.7 1011.4 0.0
31/10:00am 29.5 29.1 18.0 50 7.4 E 17 26 9 14 1011.9 1011.6 0.0
31/09:30am 28.3 27.6 18.7 56 6.2 E 20 30 11 16 1012.2 1011.9 0.0
31/09:00am 27.3 27.1 18.6 59 5.6 E 17 26 9 14 1012.5 1012.2 0.0
31/08:30am 26.3 26.4 18.4 61 5.0 E 15 24 8 13 1012.5 1012.2 0.0
31/08:00am 24.8 25.7 18.5 68 4.0 E 11 17 6 9 1012.5 1012.2 0.0
31/07:30am 23.2 24.9 18.1 73 3.2 ESE 6 13 3 7 1012.4 1012.1 0.0
31/07:00am 21.3 24.2 18.1 82 2.0 CALM 0 0 0 0 1012.0 1011.7 0.0
31/06:30am 19.7 22.1 17.1 85 1.6 CALM 0 0 0 0 1011.8 1011.5 0.0
31/06:00am 19.3 21.7 16.9 86 1.5 SSE 0 0 0 0 1011.7 1011.4 0.0
31/05:30am 19.3 21.6 16.7 85 1.6 CALM 0 0 0 0 1011.4 1011.1 0.0
31/05:00am 19.5 21.8 16.7 84 1.7 CALM 0 0 0 0 1011.1 1010.8 0.0
31/04:30am 19.7 22.0 16.7 83 1.8 CALM 0 0 0 0 1010.7 1010.4 0.0
31/04:00am 20.1 22.5 17.1 83 1.8 CALM 0 0 0 0 1010.7 1010.4 0.0
31/03:30am 20.1 22.5 16.9 82 1.9 CALM 0 0 0 0 1010.5 1010.2 0.0
31/03:00am 20.2 22.6 17.0 82 2.0 CALM 0 0 0 0 1010.5 1010.2 0.0
31/02:30am 20.4 22.6 16.6 79 2.3 CALM 0 0 0 0 1010.7 1010.4 0.0
31/02:00am 20.9 23.3 17.1 79 2.3 CALM 0 0 0 0 1010.9 1010.6 0.0
31/01:30am 21.4 23.9 17.2 77 2.6 CALM 0 0 0 0 1011.2 1010.9 0.0
31/01:00am 22.3 24.5 17.4 74 3.0 SE 2 6 1 3 1011.5 1011.2 0.0
31/12:30am 22.9 24.8 17.6 72 3.3 ESE 4 7 2 4 1011.8 1011.5 0.0
31/12:00am 23.5 24.9 17.7 70 3.6 ESE 7 11 4 6 1012.0 1011.7 0.0
 
Date/Time
EST
Temp
°C
App
Temp
°C
Dew
Point
Rel
Hum
%
Delta-T
°C
Wind Press
QNH
hPa
Press
MSL
hPa
Rain
since 9 am
mm
Dir
 
Spd
km/h
Gust
km/h
Spd
kts
Gust
kts
30/11:30pm 24.1 25.5 17.8 68 3.9 E 7 15 4 8 1012.3 1012.0 0.0
30/11:00pm 24.4 25.1 17.1 63 4.5 E 9 15 5 8 1012.4 1012.1 0.0
30/10:30pm 24.8 26.1 17.0 62 4.8 E 6 11 3 6 1012.1 1011.8 0.0
30/10:00pm 25.4 26.2 17.3 61 5.1 E 9 15 5 8 1011.8 1011.5 0.0
30/09:30pm 25.0 28.1 19.4 71 3.6 ESE 2 7 1 4 1011.7 1011.4 0.0
30/09:00pm 25.3 28.7 19.4 70 3.8 CALM 0 0 0 0 1011.4 1011.1 0.0
30/08:30pm 25.9 29.3 19.3 67 4.3 CALM 0 0 0 0 1011.1 1010.8 0.0
30/08:00pm 26.4 28.7 19.5 66 4.5 WSW 6 9 3 5 1010.6 1010.3 0.0
30/07:30pm 26.6 28.9 19.5 65 4.6 WSW 6 9 3 5 1010.2 1009.9 0.0
30/07:00pm 26.9 29.1 19.5 64 4.8 W 7 15 4 8 1009.5 1009.2 0.0
30/06:30pm 27.7 29.1 19.5 61 5.3 W 11 17 6 9 1009.1 1008.8 0.0
30/06:00pm 29.0 30.7 19.3 55 6.3 W 9 17 5 9 1008.5 1008.2 0.0
30/05:30pm 29.9 30.3 19.0 52 7.1 W 15 24 8 13 1007.9 1007.6 0.0
30/05:25pm 30.3 30.8 18.4 49 7.7 W 13 22 7 12 1007.8 1007.5 0.0
30/05:00pm 35.4 32.9 8.3 19 15.3 ENE 11 19 6 10 1007.3 1007.0 0.0
30/04:30pm 35.7 31.8 8.5 19 15.4 ESE 19 24 10 13 1007.0 1006.7 0.0
30/04:00pm 35.9 32.6 7.9 18 15.8 E 15 26 8 14 1007.0 1006.7 0.0
30/03:30pm 36.3 33.4 9.8 20 15.4 E 15 28 8 15 1007.3 1007.0 0.0
30/03:00pm 35.5 33.0 9.8 21 14.9 E 13 26 7 14 1007.5 1007.2 0.0
30/02:30pm 35.7 34.1 11.4 23 14.4 ENE 11 24 6 13 1007.7 1007.4 0.0
30/02:00pm 35.5 33.4 12.5 25 13.9 ENE 15 22 8 12 1008.3 1008.0 0.0
30/01:30pm 34.4 32.6 12.1 26 13.3 ENE 13 26 7 14 1008.7 1008.4 0.0
30/01:00pm 33.8 32.4 12.2 27 12.9 ENE 11 19 6 10 1009.4 1009.1 0.0
30/12:30pm 34.1 31.1 12.4 26 13.0 SE 20 33 11 18 1010.0 1009.7 0.0
30/12:00pm 32.2 30.6 13.9 33 11.1 ENE 15 30 8 16 1010.7 1010.4 0.0
30/11:30am 32.2 32.1 16.1 38 10.1 E 11 24 6 13 1011.2 1010.9 0.0
30/11:00am 30.8 30.0 15.2 38 9.6 ENE 13 24 7 13 1011.6 1011.3 0.0
30/10:30am 29.6 29.5 16.1 44 8.4 E 11 20 6 11 1011.9 1011.6 0.0
30/10:00am 29.1 29.4 17.0 48 7.6 ESE 11 24 6 13 1012.4 1012.1 0.0
30/09:30am 28.3 28.3 17.2 51 7.0 E 13 20 7 11 1012.9 1012.6 0.0
30/09:00am 26.8 26.7 17.0 55 6.1 E 13 24 7 13 1013.1 1012.8 0.0
30/08:30am 25.9 25.2 17.3 59 5.4 E 17 28 9 15 1013.0 1012.7 0.0
30/08:00am 25.0 26.4 18.7 68 4.0 ESE 9 15 5 8 1012.8 1012.5 0.0
30/07:30am 23.8 25.4 19.1 75 3.0 E 9 17 5 9 1012.9 1012.6 0.0
30/07:00am 22.4 24.4 19.2 82 2.0 ESE 7 11 4 6 1012.4 1012.1 0.0
30/06:30am 20.8 23.5 18.7 88 1.3 S 2 7 1 4 1012.1 1011.8 0.0
30/06:00am 20.4 23.3 18.3 88 1.3 CALM 0 0 0 0 1011.8 1011.5 0.0
30/05:30am 20.8 23.8 18.4 86 1.5 CALM 0 0 0 0 1011.5 1011.2 0.0
30/05:00am 21.0 24.1 18.6 86 1.5 CALM 0 0 0 0 1011.3 1011.0 0.0
30/04:30am 21.3 24.4 18.7 85 1.6 CALM 0 0 0 0 1011.1 1010.8 0.0
30/04:00am 21.8 24.7 19.0 84 1.8 ESE 2 7 1 4 1011.1 1010.8 0.0
30/03:30am 22.1 24.2 18.9 82 2.0 ESE 6 11 3 6 1011.0 1010.7 0.0
30/03:00am 22.5 24.5 19.1 81 2.2 E 7 11 4 6 1011.1 1010.8 0.0
30/02:30am 22.7 24.9 19.1 80 2.3 E 6 13 3 7 1011.3 1011.0 0.0
30/02:00am 23.0 25.0 19.2 79 2.4 E 7 11 4 6 1011.4 1011.1 0.0
30/01:30am 23.4 25.4 19.1 77 2.7 E 7 13 4 7 1011.7 1011.4 0.0
30/01:00am 23.7 25.7 19.2 76 2.9 ENE 7 13 4 7 1012.0 1011.7 0.0
30/12:30am 23.9 25.5 19.2 75 3.0 NE 9 17 5 9 1012.2 1011.9 0.0
30/12:00am 24.3 25.9 19.1 73 3.3 NE 9 13 5 7 1012.2 1011.9 0.0
 
Date/Time
EST
Temp
°C
App
Temp
°C
Dew
Point
Rel
Hum
%
Delta-T
°C
Wind Press
QNH
hPa
Press
MSL
hPa
Rain
since 9 am
mm
Dir
 
Spd
km/h
Gust
km/h
Spd
kts
Gust
kts
29/11:30pm 24.8 26.8 19.2 71 3.6 NE 7 13 4 7 1012.5 1012.2 0.0
29/11:00pm 25.3 27.2 19.0 68 4.0 NE 7 13 4 7 1012.5 1012.2 0.0
29/10:30pm 25.7 28.9 18.9 66 4.4 CALM 0 0 0 0 1012.7 1012.4 0.0
29/10:00pm 25.8 29.1 19.0 66 4.4 CALM 0 0 0 0 1012.8 1012.5 0.0
29/09:30pm 25.5 28.8 19.2 68 4.0 CALM 0 0 0 0 1012.8 1012.5 0.0
29/09:00pm 25.3 28.4 18.7 67 4.2 CALM 0 0 0 0 1012.5 1012.2 0.0
29/08:30pm 25.6 28.6 18.5 65 4.5 CALM 0 0 0 0 1012.2 1011.9 0.0
29/08:00pm 26.3 29.4 18.7 63 4.9 CALM 0 0 0 0 1011.9 1011.6 0.0
29/07:30pm 26.6 29.0 18.7 62 5.1 W 4 9 2 5 1011.5 1011.2 0.0
29/07:00pm 26.9 28.6 18.5 60 5.4 WSW 7 11 4 6 1011.0 1010.7 0.0
29/06:30pm 27.3 28.4 18.9 60 5.4 W 11 19 6 10 1010.6 1010.3 0.0
29/06:00pm 27.9 28.5 18.6 57 6.0 W 13 20 7 11 1009.9 1009.6 0.0
29/05:30pm 28.6 28.5 18.7 55 6.4 W 17 24 9 13 1009.5 1009.2 0.0
29/05:00pm 29.3 29.1 18.4 51 7.0 W 17 28 9 15 1009.2 1008.9 0.0
29/04:30pm 33.3 33.3 16.2 36 10.8 E 11 26 6 14 1008.9 1008.6 0.0
29/04:00pm 34.7 34.7 13.5 28 12.9 ENE 6 17 3 9 1008.6 1008.3 0.0
29/03:30pm 34.6 33.2 13.4 28 12.9 NNE 13 20 7 11 1008.7 1008.4 0.0
29/03:00pm 34.1 33.3 14.1 30 12.3 SSE 11 20 6 11 1008.8 1008.5 0.0
29/02:30pm 34.1 33.1 14.6 31 12.0 E 13 22 7 12 1009.2 1008.9 0.0
29/02:00pm 33.7 33.1 14.7 32 11.8 E 11 20 6 11 1009.6 1009.3 0.0
29/01:30pm 33.2 32.3 14.8 33 11.4 ENE 13 22 7 12 1010.0 1009.7 0.0
29/01:00pm 32.3 32.2 14.9 35 10.7 SE 9 15 5 8 1010.5 1010.2 0.0
29/12:30pm 31.7 31.1 15.6 37 10.0 E 13 26 7 14 1011.1 1010.8 0.0
29/12:00pm 31.4 31.2 16.6 41 9.3 ENE 13 20 7 11 1011.6 1011.3 0.0
29/11:30am 30.7 30.3 16.3 42 9.0 ESE 13 26 7 14 1012.3 1012.0 0.0
29/11:00am 30.1 31.0 17.5 46 8.0 ENE 9 20 5 11 1012.8 1012.5 0.0
29/10:30am 28.4 27.8 16.7 49 7.3 E 15 22 8 12 1013.2 1012.9 0.0
29/10:00am 28.5 29.7 18.3 54 6.5 ENE 9 19 5 10 1013.5 1013.2 0.0
29/09:30am 26.6 27.8 18.2 60 5.3 E 9 15 5 8 1013.7 1013.4 0.0
29/09:00am 26.9 28.1 19.0 62 5.1 ESE 11 19 6 10 1014.0 1013.7 0.0
29/08:30am 25.7 27.4 19.3 67 4.1 ESE 9 15 5 8 1013.9 1013.6 0.0
29/08:00am 25.1 26.9 19.5 71 3.6 SSE 9 15 5 8 1013.7 1013.4 0.0
29/07:30am 24.3 26.7 19.6 75 3.0 ESE 6 9 3 5 1013.3 1013.0 0.0
29/07:00am 22.3 24.3 19.1 82 2.0 SSE 7 11 4 6 1013.0 1012.7 0.0
29/06:30am 19.8 22.6 17.9 89 1.2 CALM 0 0 0 0 1012.8 1012.5 0.0
29/06:00am 19.1 21.6 17.2 89 1.2 CALM 0 0 0 0 1012.4 1012.1 0.0
29/05:30am 19.2 21.7 17.2 88 1.2 CALM 0 0 0 0 1012.0 1011.7 0.0
29/05:00am 19.6 22.3 17.7 89 1.2 CALM 0 0 0 0 1011.9 1011.6 0.0
29/04:30am 19.6 22.1 17.2 86 1.5 CALM 0 0 0 0 1011.7 1011.4 0.0
29/04:00am 19.5 22.0 17.3 87 1.3 CALM 0 0 0 0 1011.5 1011.2 0.0
29/03:30am 19.8 22.2 17.0 84 1.7 CALM 0 0 0 0 1011.5 1011.2 0.0
29/03:00am 20.1 22.5 17.1 83 1.8 CALM 0 0 0 0 1011.6 1011.3 0.0
29/02:30am 20.5 22.9 17.1 81 2.1 CALM 0 0 0 0 1011.8 1011.5 0.0
29/02:00am 20.9 23.4 17.3 80 2.2 CALM 0 0 0 0 1011.7 1011.4 0.0
29/01:30am 21.5 24.1 17.5 78 2.5 CALM 0 0 0 0 1011.7 1011.4 0.0
29/01:00am 22.2 25.0 18.0 77 2.6 CALM 0 0 0 0 1012.0 1011.7 0.0
29/12:30am 23.0 25.9 18.3 75 3.0 CALM 0 0 0 0 1012.1 1011.8 0.0
29/12:00am 23.6 25.4 18.3 72 3.3 ENE 6 11 3 6 1012.3 1012.0 0.0
 
Date/Time
EST
Temp
°C
App
Temp
°C
Dew
Point
Rel
Hum
%
Delta-T
°C
Wind Press
QNH
hPa
Press
MSL
hPa
Rain
since 9 am
mm
Dir
 
Spd
km/h
Gust
km/h
Spd
kts
Gust
kts
28/11:30pm 24.0 25.5 18.0 69 3.8 ENE 7 13 4 7 1012.4 1012.1 0.0
28/11:00pm 24.4 26.1 18.1 68 4.0 NE 6 9 3 5 1012.4 1012.1 0.0
28/10:30pm 24.9 26.0 18.1 66 4.3 NE 9 13 5 7 1012.3 1012.0 0.0
28/10:00pm 25.4 27.0 18.3 65 4.5 NE 7 11 4 6 1012.1 1011.8 0.0
28/09:30pm 25.9 27.1 18.3 63 4.8 NNE 9 15 5 8 1012.2 1011.9 0.0

Other Formats:

Comma delimited format used in spreadsheet applications
http://www.bom.gov.au/fwo/IDQ60801/IDQ60801.94171.axf

JavaScript Object Notation format (JSON) in row-major order
http://www.bom.gov.au/fwo/IDQ60801/IDQ60801.94171.json